Virginia Trader — 9HA3823 — position and weather

sailwx.info

Track history (hours):
 
Tides and Currents Weather Stations Pressure Air Temp Water Temp Dewpoint Dewpoint Depression Visibility Wind Speed Wind Dir Waves Ship Positions

Virginia Trader

Last reported at 2017-Nov-18 05:47 UTC. Time now 2017-Nov-19 06:48 UTC.
Position N 10°55' W 075°27'.

Length 211 m; draft 7.3 m.

Type: Cargo ship. MMSI: 256116000.

Date/timePositionNaut miles runAvg speedWind from/ knotsBaromVisibWave heightAir tempDewpointWater temp
2017-Nov-18 05:47N 10°55' W 075°27'0 0.0
2017-Nov-18 05:26N 10°55' W 075°27'  
2017-Nov-15 00:16N 16°12' W 062°51'411.3
2017-Nov-14 23:53N 16°14' W 062°47'411.3
2017-Nov-14 23:31N 16°16' W 062°43'611.4
2017-Nov-14 23:01N 16°18' W 062°37'811.5
2017-Nov-14 22:17N 16°21' W 062°29'311.4
2017-Nov-14 22:00N 16°22' W 062°26'511.3
2017-Nov-14 21:31N 16°24' W 062°21'611.3
2017-Nov-14 21:00N 16°27' W 062°15'611.8
2017-Nov-14 20:31N 16°29' W 062°10'611.9
2017-Nov-14 20:01N 16°31' W 062°04'611.6
2017-Nov-14 19:30N 16°33' W 061°58'611.4
2017-Nov-14 19:01N 16°36' W 061°53'611.2
2017-Nov-14 18:30N 16°38' W 061°48'611.5
2017-Nov-14 18:01N 16°40' W 061°42'611.6
2017-Nov-14 17:31N 16°42' W 061°36'611.5
2017-Nov-14 17:01N 16°44' W 061°31'611.6
2017-Nov-14 16:31N 16°46' W 061°25'611.6
2017-Nov-14 16:00N 16°49' W 061°20'611.5
2017-Nov-14 15:31N 16°51' W 061°14'611.2
2017-Nov-14 15:00N 16°53' W 061°09'511.0
2017-Nov-14 14:30N 16°55' W 061°03'  
Track history (hours):
 
Tides and Currents Weather Stations Pressure Air Temp Water Temp Dewpoint Dewpoint Depression Visibility Wind Speed Wind Dir Waves Ship Positions

Virginia Trader

Last reported at 2017-Nov-18 05:47 UTC. Time now 2017-Nov-19 06:48 UTC.
Position N 10°55' W 075°27'.

Length 211 m; draft 7.3 m.

Type: Cargo ship. MMSI: 256116000.

Date/timePositionNaut miles runAvg speedWind from/ knotsBaromVisibWave heightAir tempDewpointWater temp
2017-Nov-18 05:47N 10°55' W 075°27'0 0.0
2017-Nov-18 05:26N 10°55' W 075°27'  
2017-Nov-15 00:16N 16°12' W 062°51'411.3
2017-Nov-14 23:53N 16°14' W 062°47'411.3
2017-Nov-14 23:31N 16°16' W 062°43'611.4
2017-Nov-14 23:01N 16°18' W 062°37'811.5
2017-Nov-14 22:17N 16°21' W 062°29'311.4
2017-Nov-14 22:00N 16°22' W 062°26'511.3
2017-Nov-14 21:31N 16°24' W 062°21'611.3
2017-Nov-14 21:00N 16°27' W 062°15'611.8
2017-Nov-14 20:31N 16°29' W 062°10'611.9
2017-Nov-14 20:01N 16°31' W 062°04'611.6
2017-Nov-14 19:30N 16°33' W 061°58'611.4
2017-Nov-14 19:01N 16°36' W 061°53'611.2
2017-Nov-14 18:30N 16°38' W 061°48'611.5
2017-Nov-14 18:01N 16°40' W 061°42'611.6
2017-Nov-14 17:31N 16°42' W 061°36'611.5
2017-Nov-14 17:01N 16°44' W 061°31'611.6
2017-Nov-14 16:31N 16°46' W 061°25'611.6
2017-Nov-14 16:00N 16°49' W 061°20'611.5
2017-Nov-14 15:31N 16°51' W 061°14'611.2
2017-Nov-14 15:00N 16°53' W 061°09'511.0
2017-Nov-14 14:30N 16°55' W 061°03'  

Dump ship's entire track history